createdAt,value
2023-08-16T00:00:28.681Z,15.30
2023-08-16T00:03:09.099Z,15.30
2023-08-16T00:05:54.031Z,15.30
2023-08-16T00:08:33.047Z,15.40
2023-08-16T00:11:22.118Z,15.30
2023-08-16T00:16:29.843Z,15.30
2023-08-16T00:20:30.555Z,15.30
2023-08-16T00:40:21.754Z,15.20
2023-08-16T00:42:52.389Z,15.10
2023-08-16T00:45:22.107Z,15.10
2023-08-16T00:47:49.899Z,15.00
2023-08-16T00:50:49.863Z,15.00
2023-08-16T00:53:30.360Z,14.90
2023-08-16T00:56:13.777Z,14.80
2023-08-16T01:02:05.054Z,14.80
2023-08-16T01:04:35.889Z,14.70
2023-08-16T01:07:05.668Z,14.70
2023-08-16T01:09:36.076Z,14.70
2023-08-16T01:12:36.985Z,14.70
2023-08-16T01:18:29.930Z,14.70
2023-08-16T01:21:07.177Z,14.80
2023-08-16T01:24:14.500Z,14.90
2023-08-16T01:26:48.932Z,14.90
2023-08-16T01:29:34.213Z,14.90
2023-08-16T01:32:01.415Z,14.90
2023-08-16T01:34:31.442Z,14.90
2023-08-16T01:36:58.287Z,14.90
2023-08-16T01:39:25.230Z,14.90
2023-08-16T01:41:55.437Z,14.90
2023-08-16T01:44:26.819Z,14.90
2023-08-16T01:46:55.327Z,14.90
2023-08-16T01:49:29.494Z,14.80
2023-08-16T01:52:01.646Z,14.80
2023-08-16T01:54:31.348Z,14.80
2023-08-16T01:56:58.556Z,14.80
2023-08-16T01:59:34.712Z,14.80
2023-08-16T02:02:22.690Z,14.80
2023-08-16T02:05:28.256Z,14.70
2023-08-16T02:08:07.538Z,14.70
2023-08-16T02:10:43.175Z,14.70
2023-08-16T02:13:14.457Z,14.70
2023-08-16T02:15:45.804Z,14.70
2023-08-16T02:18:33.014Z,14.70
2023-08-16T02:20:59.973Z,14.70
2023-08-16T02:23:27.111Z,14.60
2023-08-16T02:26:02.933Z,14.60
2023-08-16T02:28:39.295Z,14.70
2023-08-16T02:31:07.494Z,14.70
2023-08-16T02:33:34.914Z,14.60
2023-08-16T02:36:04.191Z,14.60
2023-08-16T02:38:31.602Z,14.60
2023-08-16T02:41:07.405Z,14.60
2023-08-16T02:43:35.880Z,14.60
2023-08-16T02:46:03.408Z,14.60
2023-08-16T02:48:52.415Z,14.70
2023-08-16T02:51:22.039Z,14.70
2023-08-16T02:53:57.204Z,14.70
2023-08-16T02:56:38.987Z,14.70
2023-08-16T03:53:40.648Z,14.40
2023-08-16T03:56:12.703Z,14.40
2023-08-16T03:58:47.418Z,14.40
2023-08-16T04:01:22.998Z,14.40
2023-08-16T04:03:55.301Z,14.30
2023-08-16T04:06:31.305Z,14.30
2023-08-16T04:08:58.192Z,14.30
2023-08-16T04:11:27.677Z,14.30
2023-08-16T04:14:05.489Z,14.30
2023-08-16T04:16:33.815Z,14.30
2023-08-16T04:19:09.730Z,14.30
2023-08-16T04:21:51.057Z,14.30
2023-08-16T04:24:28.585Z,14.40
2023-08-16T04:26:57.968Z,14.40
2023-08-16T04:30:18.938Z,14.40
2023-08-16T04:32:45.813Z,14.40
2023-08-16T04:36:50.487Z,14.40
2023-08-16T04:39:29.951Z,14.40
2023-08-16T04:42:18.256Z,14.40
2023-08-16T04:44:45.288Z,14.40
2023-08-16T04:47:58.053Z,14.40
2023-08-16T04:50:25.011Z,14.40
2023-08-16T04:53:08.308Z,14.50
2023-08-16T04:55:42.296Z,14.50
2023-08-16T04:58:13.489Z,14.60
2023-08-16T05:00:45.487Z,14.60
2023-08-16T05:03:18.104Z,14.70
2023-08-16T05:06:16.895Z,14.70
2023-08-16T05:08:56.003Z,14.80
2023-08-16T05:11:37.598Z,14.80
2023-08-16T05:14:13.417Z,14.90
2023-08-16T05:19:36.974Z,14.90
2023-08-16T05:22:13.193Z,15.00
2023-08-16T05:25:13.309Z,15.00
2023-08-16T05:28:23.282Z,15.10
2023-08-16T05:36:55.644Z,15.30
2023-08-16T05:39:27.221Z,15.40
2023-08-16T05:41:59.561Z,15.50
2023-08-16T06:27:38.254Z,17.40
2023-08-16T06:44:34.458Z,18.00
2023-08-16T06:53:45.342Z,18.40
2023-08-16T06:56:43.650Z,18.70
2023-08-16T06:59:14.404Z,18.80
2023-08-16T07:04:43.247Z,18.70
2023-08-16T07:07:18.238Z,18.80
2023-08-16T07:09:48.089Z,18.80
2023-08-16T07:12:18.052Z,18.90
2023-08-16T07:15:00.040Z,18.90
2023-08-16T07:17:32.171Z,18.80
2023-08-16T07:20:07.830Z,18.80
2023-08-16T07:25:59.443Z,18.80
2023-08-16T07:28:46.968Z,18.80
2023-08-16T07:31:47.232Z,19.00
2023-08-16T07:34:34.790Z,19.00
2023-08-16T07:37:21.729Z,19.00
2023-08-16T07:39:51.636Z,19.20
2023-08-16T07:42:49.551Z,19.40
2023-08-16T07:45:23.824Z,19.40
2023-08-16T07:48:14.544Z,19.60
2023-08-16T07:50:56.474Z,19.70
2023-08-16T07:53:52.512Z,19.70
2023-08-16T08:02:55.466Z,19.70
2023-08-16T08:05:29.142Z,20.00
2023-08-16T08:08:04.066Z,20.10
2023-08-16T08:10:31.378Z,20.40
2023-08-16T08:12:58.843Z,20.50
2023-08-16T08:15:29.278Z,20.50
2023-08-16T08:21:09.532Z,20.40
2023-08-16T08:24:18.238Z,20.40
2023-08-16T08:26:48.838Z,20.40
2023-08-16T08:29:15.783Z,20.50
2023-08-16T08:38:52.654Z,21.00
2023-08-16T08:44:14.183Z,21.40
2023-08-16T08:50:57.101Z,21.70
2023-08-16T08:56:38.454Z,21.50
2023-08-16T09:02:51.494Z,21.70
2023-08-16T09:05:36.692Z,21.80
2023-08-16T09:12:28.041Z,21.80
2023-08-16T09:18:19.116Z,21.90
2023-08-16T09:21:02.853Z,21.80
2023-08-16T09:24:10.929Z,21.70
2023-08-16T09:30:28.551Z,21.70
2023-08-16T09:33:21.407Z,21.90
2023-08-16T09:39:33.706Z,22.10
2023-08-16T10:01:30.140Z,23.10
2023-08-16T10:09:51.486Z,23.30
2023-08-16T10:15:41.818Z,23.60
2023-08-16T10:18:13.363Z,23.30
2023-08-16T10:34:09.675Z,23.20
2023-08-16T10:36:43.488Z,23.20
2023-08-16T10:56:08.557Z,23.20
2023-08-16T10:59:46.898Z,23.30
2023-08-16T11:15:32.473Z,23.80
2023-08-16T11:31:10.271Z,23.60
2023-08-16T11:43:09.250Z,23.80
2023-08-16T11:49:27.649Z,24.10
2023-08-16T11:52:19.822Z,24.40
2023-08-16T11:58:17.411Z,24.50
2023-08-16T12:00:46.529Z,24.30
2023-08-16T12:06:15.959Z,23.70
2023-08-16T12:08:53.773Z,23.70
2023-08-16T12:14:36.903Z,23.90
2023-08-16T12:17:07.933Z,23.90
2023-08-16T12:19:48.182Z,23.90
2023-08-16T12:22:17.234Z,23.90
2023-08-16T12:24:44.215Z,24.00
2023-08-16T12:27:45.268Z,23.90
2023-08-16T12:31:04.640Z,23.80
2023-08-16T12:33:35.392Z,23.90
2023-08-16T12:41:46.283Z,24.00
2023-08-16T12:47:02.246Z,23.90
2023-08-16T12:52:58.019Z,24.00
2023-08-16T12:56:08.023Z,24.10
2023-08-16T13:05:11.173Z,24.00
2023-08-16T13:13:43.181Z,24.40
2023-08-16T13:16:12.762Z,24.20
2023-08-16T13:21:22.465Z,24.00
2023-08-16T13:24:37.746Z,24.00
2023-08-16T13:30:46.740Z,24.10
2023-08-16T13:39:08.492Z,24.40
2023-08-16T13:41:44.334Z,24.20
2023-08-16T13:46:41.849Z,24.50
2023-08-16T13:49:14.670Z,24.50
2023-08-16T13:51:51.708Z,24.30
2023-08-16T13:57:59.183Z,24.20
2023-08-16T14:03:42.764Z,24.40
2023-08-16T14:09:09.589Z,24.20
2023-08-16T14:11:51.774Z,24.20
2023-08-16T14:14:18.609Z,24.30
2023-08-16T14:16:45.781Z,24.30
2023-08-16T14:19:29.104Z,24.30
2023-08-16T14:22:02.082Z,24.20
2023-08-16T14:24:28.858Z,24.30
2023-08-16T14:34:14.111Z,24.30
2023-08-16T14:37:18.496Z,24.30
2023-08-16T14:43:14.018Z,24.00
2023-08-16T14:46:04.760Z,24.10
2023-08-16T14:49:06.635Z,24.10
2023-08-16T14:51:42.622Z,24.00
2023-08-16T15:08:09.158Z,24.00
2023-08-16T15:10:35.856Z,24.10
2023-08-16T15:13:25.821Z,24.20
2023-08-16T15:15:58.473Z,24.10
2023-08-16T15:18:25.526Z,24.00
2023-08-16T15:21:00.268Z,23.90
2023-08-16T15:23:33.739Z,24.00
2023-08-16T15:26:23.185Z,24.00
2023-08-16T15:29:01.960Z,24.00
2023-08-16T15:31:29.163Z,23.80
2023-08-16T15:33:56.083Z,23.90
2023-08-16T15:36:28.494Z,23.80
2023-08-16T15:38:55.439Z,23.80
2023-08-16T15:41:22.321Z,23.80
2023-08-16T15:43:49.202Z,23.80
2023-08-16T15:46:16.103Z,23.90
2023-08-16T15:48:45.324Z,23.90
2023-08-16T15:53:58.231Z,23.80
2023-08-16T15:56:29.109Z,23.90
2023-08-16T15:59:28.794Z,24.00
2023-08-16T16:06:10.936Z,23.80
2023-08-16T16:15:03.812Z,23.70
2023-08-16T16:17:45.054Z,23.70
2023-08-16T16:20:14.936Z,23.70
2023-08-16T16:22:49.838Z,23.70
2023-08-16T16:28:13.853Z,23.50
2023-08-16T16:30:52.641Z,23.40
2023-08-16T16:36:39.613Z,23.40
2023-08-16T16:39:19.512Z,23.40
2023-08-16T16:41:46.484Z,23.40
2023-08-16T16:44:13.228Z,23.40
2023-08-16T16:46:40.187Z,23.40
2023-08-16T16:49:30.519Z,23.40
2023-08-16T16:51:57.736Z,23.30
2023-08-16T16:54:24.735Z,23.20
2023-08-16T16:56:51.664Z,23.20
2023-08-16T17:08:23.908Z,23.10
2023-08-16T17:13:48.333Z,22.90
2023-08-16T17:16:24.603Z,22.80
2023-08-16T17:19:05.718Z,22.80
2023-08-16T17:21:40.754Z,22.70
2023-08-16T17:24:16.776Z,22.70
2023-08-16T17:29:52.955Z,22.60
2023-08-16T17:32:28.893Z,22.50
2023-08-16T17:35:03.236Z,22.40
2023-08-16T17:37:48.281Z,22.40
2023-08-16T17:46:00.358Z,22.40
2023-08-16T17:48:29.164Z,22.40
2023-08-16T17:51:04.392Z,22.30
2023-08-16T17:53:31.202Z,22.30
2023-08-16T17:56:09.370Z,22.20
2023-08-16T17:58:36.319Z,22.20
2023-08-16T18:03:50.247Z,22.20
2023-08-16T18:06:19.739Z,22.20
2023-08-16T18:08:47.402Z,22.20
2023-08-16T18:11:14.227Z,22.20
2023-08-16T18:13:49.268Z,22.20
2023-08-16T18:16:16.058Z,22.10
2023-08-16T18:18:46.925Z,22.10
2023-08-16T18:21:13.946Z,22.10
2023-08-16T18:23:43.363Z,22.10
2023-08-16T18:26:10.167Z,22.00
2023-08-16T18:28:43.162Z,22.10
2023-08-16T18:31:12.587Z,22.00
2023-08-16T18:33:45.476Z,21.90
2023-08-16T18:36:12.920Z,21.90
2023-08-16T18:38:52.237Z,21.90
2023-08-16T18:41:25.297Z,21.80
2023-08-16T18:43:52.362Z,21.80
2023-08-16T18:46:19.236Z,21.80
2023-08-16T18:48:50.982Z,21.80
2023-08-16T18:52:17.663Z,21.70
2023-08-16T18:54:47.512Z,21.70
2023-08-16T19:03:26.956Z,21.60
2023-08-16T19:05:59.889Z,21.60
2023-08-16T19:11:35.980Z,21.50
2023-08-16T19:14:12.011Z,21.50
2023-08-16T19:17:04.430Z,21.40
2023-08-16T19:19:43.189Z,21.40
2023-08-16T19:22:18.375Z,21.40
2023-08-16T19:24:54.036Z,21.40
2023-08-16T19:27:44.224Z,21.30
2023-08-16T19:31:01.688Z,21.30
2023-08-16T19:33:46.344Z,21.20
2023-08-16T19:39:51.995Z,21.20
2023-08-16T19:48:32.113Z,21.10
2023-08-16T19:51:48.546Z,21.00
2023-08-16T19:55:05.190Z,20.90
2023-08-16T20:17:50.764Z,20.10
2023-08-16T20:20:20.847Z,20.00
2023-08-16T20:29:12.779Z,19.90
2023-08-16T20:31:41.906Z,19.80
2023-08-16T20:37:40.881Z,19.70
2023-08-16T20:42:51.780Z,19.60
2023-08-16T20:45:18.555Z,19.60
2023-08-16T20:48:14.454Z,19.50
2023-08-16T20:50:47.644Z,19.50
2023-08-16T20:53:44.965Z,19.40
2023-08-16T20:56:11.983Z,19.40
2023-08-16T20:58:39.993Z,19.40
2023-08-16T21:04:36.661Z,19.20
2023-08-16T21:07:09.134Z,19.20
2023-08-16T21:13:36.777Z,19.10
2023-08-16T21:16:31.771Z,19.00
2023-08-16T21:19:34.720Z,18.90
2023-08-16T21:22:40.940Z,18.90
2023-08-16T21:25:44.670Z,18.90
2023-08-16T21:28:49.923Z,18.80
2023-08-16T21:31:48.236Z,18.80
2023-08-16T21:38:07.344Z,18.70
2023-08-16T21:40:58.676Z,18.60
2023-08-16T21:43:38.676Z,18.60
2023-08-16T21:46:07.470Z,18.50
2023-08-16T21:49:01.642Z,18.50
2023-08-16T21:51:28.627Z,18.50
2023-08-16T21:57:46.607Z,18.40
2023-08-16T22:00:31.378Z,18.30
2023-08-16T22:03:17.717Z,18.30
2023-08-16T22:22:04.380Z,18.00
2023-08-16T22:24:33.991Z,18.00
2023-08-16T22:29:52.641Z,17.90
2023-08-16T22:35:41.382Z,17.80
2023-08-16T22:38:24.893Z,17.70
2023-08-16T22:41:05.368Z,17.70
2023-08-16T22:44:07.788Z,17.70
2023-08-16T22:47:00.440Z,17.60
2023-08-16T22:49:30.297Z,17.60
2023-08-16T22:51:57.323Z,17.60
2023-08-16T22:54:25.582Z,17.60
2023-08-16T22:56:52.492Z,17.50
2023-08-16T22:59:19.810Z,17.50
2023-08-16T23:02:11.981Z,17.50
2023-08-16T23:04:38.916Z,17.50
2023-08-16T23:13:19.893Z,17.40
2023-08-16T23:16:10.754Z,17.40
2023-08-16T23:18:52.698Z,17.30
2023-08-16T23:21:27.678Z,17.30
2023-08-16T23:24:21.322Z,17.30
2023-08-16T23:26:52.018Z,17.30
2023-08-16T23:32:33.512Z,17.30
2023-08-16T23:44:08.541Z,17.20
2023-08-16T23:50:16.441Z,17.20
2023-08-16T23:56:03.756Z,17.20
2023-08-16T23:58:30.789Z,17.20
